メインページ
METAR-TAF:

METAR-TAF

空港 :

館山航空基地

館山, 日本

緯度: 34-59N, 経度: 139-50E, 海抜: 3m

現時点の気象観測

当レポートは41分前の06:41(UTC)に作成
西/北西の風 3kt、西/南西から北西の間で変化する
気温 27°C
湿度 89%
気圧 1011 hPa
視程10km以上
高度200ftの雲はほとんどない
高度1500ftの千切れ雲あり
弱いにわか雨

METAR: RJTE 200641Z 30003KT 250V310 9999 -SHRA FEW002 BKN015 27/25 Q1011 RMK 1ST002 7CU015 A2988

時間: 16:22 (07:22 UTC)


TAF: 見つかりません

4,000以上の空港の気象観測と天気予報(METAR報とTAF報)

利用可能な観測所は地図上に黄色い丸と赤い丸で示す。

丸の上にカーソルを重ねると観測所名を参照できる。

次にクリックすると気象観測と天気予報を参照できる。

マップの切り替え:黒色「×」印の緑ボタンをクリックして拡大、「-」印の緑ボタンをクリックして縮小、緑色の三角印をクリックして隣りの地図に切り替え


METAR-TAF: